createdAt,value
2022-10-11T00:00:43.732Z,97965.20
2022-10-11T00:03:10.944Z,97969.00
2022-10-11T00:05:38.485Z,97969.00
2022-10-11T00:08:05.957Z,97969.20
2022-10-11T00:10:34.617Z,97972.60
2022-10-11T00:13:02.688Z,97973.00
2022-10-11T00:15:30.145Z,97974.20
2022-10-11T00:17:56.956Z,97976.40
2022-10-11T00:20:24.220Z,97978.80
2022-10-11T00:22:51.023Z,97981.60
2022-10-11T00:25:19.048Z,97980.40
2022-10-11T00:27:46.333Z,97978.80
2022-10-11T00:30:13.950Z,97977.80
2022-10-11T00:32:40.754Z,97983.60
2022-10-11T00:35:08.546Z,97984.60
2022-10-11T00:37:39.450Z,97986.00
2022-10-11T00:40:13.745Z,97984.40
2022-10-11T00:42:40.873Z,97986.20
2022-10-11T00:45:26.462Z,97983.60
2022-10-11T00:47:56.949Z,97986.80
2022-10-11T00:50:25.280Z,97987.00
2022-10-11T00:53:01.461Z,97989.60
2022-10-11T00:55:37.380Z,97993.80
2022-10-11T00:58:05.718Z,97997.00
2022-10-11T01:00:32.985Z,98001.60
2022-10-11T01:03:01.877Z,98006.00
2022-10-11T01:05:30.748Z,98009.20
2022-10-11T01:08:00.789Z,98009.80
2022-10-11T01:10:28.973Z,98010.20
2022-10-11T01:13:22.543Z,98006.80
2022-10-11T01:16:10.479Z,98009.20
2022-10-11T01:19:17.485Z,98006.80
2022-10-11T01:22:20.350Z,98012.20
2022-10-11T01:25:13.492Z,98014.40
2022-10-11T01:27:55.554Z,98015.60
2022-10-11T01:30:31.637Z,98016.60
2022-10-11T01:33:25.828Z,98019.60
2022-10-11T01:36:18.666Z,98015.80
2022-10-11T01:39:02.390Z,98024.40
2022-10-11T01:41:38.670Z,98024.00
2022-10-11T01:44:09.311Z,98026.80
2022-10-11T01:46:37.125Z,98028.40
2022-10-11T01:49:05.441Z,98029.00
2022-10-11T01:51:43.958Z,98032.40
2022-10-11T01:54:25.069Z,98035.60
2022-10-11T01:57:36.618Z,98036.00
2022-10-11T02:00:20.278Z,98038.60
2022-10-11T02:03:08.105Z,98041.80
2022-10-11T02:06:08.895Z,98045.20
2022-10-11T02:09:26.808Z,98042.60
2022-10-11T02:12:02.959Z,98040.80
2022-10-11T02:14:36.532Z,98038.20
2022-10-11T02:17:13.241Z,98039.40
2022-10-11T02:19:47.584Z,98044.40
2022-10-11T02:22:31.098Z,98043.20
2022-10-11T02:25:05.212Z,98043.40
2022-10-11T02:27:38.401Z,98041.00
2022-10-11T02:30:08.701Z,98041.40
2022-10-11T02:32:40.958Z,98047.40
2022-10-11T02:35:09.892Z,98046.20
2022-10-11T02:38:12.032Z,98048.00
2022-10-11T02:40:46.983Z,98053.20
2022-10-11T02:43:32.974Z,98050.40
2022-10-11T02:46:01.829Z,98053.00
2022-10-11T02:48:31.749Z,98049.80
2022-10-11T02:50:59.336Z,98055.60
2022-10-11T02:53:27.196Z,98055.60
2022-10-11T02:55:55.176Z,98056.60
2022-10-11T02:58:24.248Z,98059.40
2022-10-11T03:00:51.538Z,98054.60
2022-10-11T03:03:18.574Z,98055.80
2022-10-11T03:05:45.685Z,98056.40
2022-10-11T03:08:16.980Z,98057.60
2022-10-11T03:10:44.416Z,98061.20
2022-10-11T03:13:14.827Z,98060.00
2022-10-11T03:15:47.909Z,98064.00
2022-10-11T03:18:14.876Z,98064.20
2022-10-11T03:20:41.618Z,98065.40
2022-10-11T03:23:08.796Z,98069.20
2022-10-11T03:25:35.610Z,98075.80
2022-10-11T03:28:02.760Z,98082.40
2022-10-11T03:30:29.559Z,98084.60
2022-10-11T03:32:56.429Z,98082.20
2022-10-11T03:35:23.249Z,98079.40
2022-10-11T03:37:51.536Z,98075.80
2022-10-11T03:40:18.709Z,98078.60
2022-10-11T03:42:45.550Z,98078.60
2022-10-11T03:45:12.354Z,98084.20
2022-10-11T03:47:40.941Z,98080.40
2022-10-11T03:50:09.642Z,98086.60
2022-10-11T03:52:36.746Z,98082.60
2022-10-11T03:55:04.266Z,98081.40
2022-10-11T03:57:31.094Z,98081.80
2022-10-11T03:59:57.951Z,98087.00
2022-10-11T04:02:24.896Z,98084.40
2022-10-11T04:04:51.738Z,98085.80
2022-10-11T04:07:18.779Z,98090.60
2022-10-11T04:09:45.934Z,98085.80
2022-10-11T04:12:12.782Z,98091.60
2022-10-11T04:14:39.564Z,98094.80
2022-10-11T04:17:06.666Z,98096.20
2022-10-11T04:19:33.616Z,98096.20
2022-10-11T04:22:00.453Z,98092.40
2022-10-11T04:24:27.400Z,98095.00
2022-10-11T04:26:54.217Z,98089.20
2022-10-11T04:29:21.184Z,98090.40
2022-10-11T04:31:48.541Z,98101.00
2022-10-11T04:34:15.385Z,98099.60
2022-10-11T04:36:45.250Z,98096.60
2022-10-11T04:39:14.780Z,98103.80
2022-10-11T04:41:41.624Z,98102.00
2022-10-11T04:44:08.586Z,98094.00
2022-10-11T04:46:35.426Z,98088.80
2022-10-11T04:49:02.272Z,98088.00
2022-10-11T04:51:29.363Z,98085.00
2022-10-11T04:53:56.285Z,98089.40
2022-10-11T04:56:23.207Z,98085.40
2022-10-11T04:58:54.144Z,98087.80
2022-10-11T05:01:21.884Z,98094.20
2022-10-11T05:03:49.061Z,98097.20
2022-10-11T05:06:15.894Z,98100.60
2022-10-11T05:08:42.743Z,98098.40
2022-10-11T05:11:16.189Z,98093.80
2022-10-11T05:13:45.665Z,98092.00
2022-10-11T05:16:14.391Z,98086.20
2022-10-11T05:18:41.857Z,98090.60
2022-10-11T05:21:19.075Z,98098.60
2022-10-11T05:23:48.689Z,98101.80
2022-10-11T05:26:16.830Z,98101.60
2022-10-11T05:28:44.195Z,98104.00
2022-10-11T05:31:11.688Z,98100.20
2022-10-11T05:33:38.917Z,98102.20
2022-10-11T05:36:07.526Z,98103.00
2022-10-11T05:38:35.245Z,98101.40
2022-10-11T05:41:04.665Z,98104.80
2022-10-11T05:43:32.426Z,98111.60
2022-10-11T05:45:59.292Z,98111.00
2022-10-11T05:48:26.964Z,98111.20
2022-10-11T05:51:03.400Z,98108.60
2022-10-11T05:53:31.225Z,98103.20
2022-10-11T05:55:58.326Z,98113.60
2022-10-11T05:58:25.873Z,98120.20
2022-10-11T06:00:53.080Z,98128.40
2022-10-11T06:03:21.208Z,98136.80
2022-10-11T06:05:50.437Z,98142.00
2022-10-11T06:08:20.103Z,98140.40
2022-10-11T06:10:46.898Z,98145.20
2022-10-11T06:13:13.632Z,98143.80
2022-10-11T06:15:40.633Z,98148.40
2022-10-11T06:18:07.764Z,98150.00
2022-10-11T06:20:34.828Z,98150.80
2022-10-11T06:23:02.999Z,98153.60
2022-10-11T06:25:29.835Z,98151.80
2022-10-11T06:27:57.325Z,98153.60
2022-10-11T06:30:24.440Z,98149.40
2022-10-11T06:32:51.537Z,98149.80
2022-10-11T06:35:18.257Z,98144.60
2022-10-11T06:37:45.072Z,98139.60
2022-10-11T06:40:12.418Z,98141.40
2022-10-11T06:42:39.375Z,98143.40
2022-10-11T06:45:07.122Z,98143.20
2022-10-11T06:47:34.017Z,98144.60
2022-10-11T06:50:00.747Z,98145.60
2022-10-11T06:52:27.536Z,98153.80
2022-10-11T06:54:54.405Z,98155.60
2022-10-11T06:57:21.339Z,98155.40
2022-10-11T06:59:48.452Z,98163.40
2022-10-11T07:02:15.246Z,98174.60
2022-10-11T07:04:42.081Z,98175.40
2022-10-11T07:07:08.924Z,98174.40
2022-10-11T07:09:35.869Z,98179.60
2022-10-11T07:12:02.814Z,98185.00
2022-10-11T07:14:29.818Z,98188.00
2022-10-11T07:16:57.612Z,98183.60
2022-10-11T07:19:24.582Z,98183.20
2022-10-11T07:21:51.554Z,98189.60
2022-10-11T07:24:18.443Z,98191.40
2022-10-11T07:26:45.733Z,98190.20
2022-10-11T07:29:12.655Z,98187.80
2022-10-11T07:31:42.691Z,98189.20
2022-10-11T07:34:10.558Z,98195.60
2022-10-11T07:36:37.379Z,98192.00
2022-10-11T07:39:07.301Z,98195.60
2022-10-11T07:41:35.366Z,98194.00
2022-10-11T07:44:03.456Z,98195.80
2022-10-11T07:46:31.184Z,98195.80
2022-10-11T07:48:58.332Z,98194.20
2022-10-11T07:51:26.636Z,98193.60
2022-10-11T07:53:57.673Z,98195.20
2022-10-11T07:56:28.242Z,98197.00
2022-10-11T07:59:00.230Z,98199.00
2022-10-11T08:01:28.801Z,98201.00
2022-10-11T08:03:59.431Z,98197.80
2022-10-11T08:06:31.794Z,98202.00
2022-10-11T08:09:01.081Z,98204.80
2022-10-11T08:11:37.412Z,98201.20
2022-10-11T08:14:09.012Z,98206.20
2022-10-11T08:16:38.459Z,98202.00
2022-10-11T08:19:06.991Z,98204.00
2022-10-11T08:21:34.028Z,98194.80
2022-10-11T08:24:03.915Z,98205.60
2022-10-11T08:26:32.494Z,98211.60
2022-10-11T08:29:05.140Z,98213.40
2022-10-11T08:31:34.140Z,98210.40
2022-10-11T08:34:00.833Z,98216.60
2022-10-11T08:36:27.668Z,98216.40
2022-10-11T08:38:54.475Z,98219.00
2022-10-11T08:41:29.827Z,98219.40
2022-10-11T08:44:58.200Z,98220.00
2022-10-11T08:47:33.737Z,98216.60
2022-10-11T08:50:01.181Z,98223.80
2022-10-11T08:52:46.573Z,98223.60
2022-10-11T08:55:26.856Z,98225.20
2022-10-11T08:57:56.719Z,98223.40
2022-10-11T09:00:30.994Z,98226.80
2022-10-11T09:03:21.490Z,98230.00
2022-10-11T09:06:14.462Z,98232.00
2022-10-11T09:09:07.893Z,98233.00
2022-10-11T09:12:29.535Z,98235.40
2022-10-11T09:15:11.519Z,98238.00
2022-10-11T09:18:15.565Z,98239.40
2022-10-11T09:21:18.829Z,98243.00
2022-10-11T09:24:19.033Z,98250.00
2022-10-11T09:27:00.946Z,98245.00
2022-10-11T09:30:03.655Z,98247.20
2022-10-11T09:32:41.910Z,98251.80
2022-10-11T09:35:18.820Z,98251.60
2022-10-11T09:38:28.388Z,98255.20
2022-10-11T09:41:35.653Z,98260.20
2022-10-11T09:44:02.597Z,98263.00
2022-10-11T09:46:40.119Z,98264.40
2022-10-11T09:49:18.412Z,98268.00
2022-10-11T09:51:54.227Z,98267.40
2022-10-11T09:54:38.008Z,98265.80
2022-10-11T09:57:05.385Z,98267.80
2022-10-11T09:59:35.358Z,98271.80
2022-10-11T10:02:16.849Z,98272.20
2022-10-11T10:04:57.025Z,98268.60
2022-10-11T10:07:25.212Z,98273.00
2022-10-11T10:09:53.166Z,98270.60
2022-10-11T10:12:27.641Z,98269.40
2022-10-11T10:15:18.809Z,98268.40
2022-10-11T10:17:52.325Z,98268.40
2022-10-11T10:20:31.641Z,98268.60
2022-10-11T10:23:09.499Z,98273.60
2022-10-11T10:25:43.261Z,98274.20
2022-10-11T10:28:27.585Z,98274.00
2022-10-11T10:30:58.605Z,98275.20
2022-10-11T10:33:35.025Z,98273.40
2022-10-11T10:36:21.990Z,98273.20
2022-10-11T10:39:18.197Z,98277.80
2022-10-11T10:41:45.060Z,98280.80
2022-10-11T10:44:12.008Z,98273.60
2022-10-11T10:47:00.542Z,98270.80
2022-10-11T10:49:54.414Z,98273.40
2022-10-11T10:53:05.622Z,98268.60
2022-10-11T10:55:45.988Z,98269.80
2022-10-11T10:58:46.815Z,98269.00
2022-10-11T11:01:30.378Z,98265.40
2022-10-11T11:04:32.958Z,98265.00
2022-10-11T11:07:18.807Z,98265.80
2022-10-11T11:09:58.668Z,98263.80
2022-10-11T11:12:57.456Z,98263.40
2022-10-11T11:15:48.056Z,98262.40
2022-10-11T11:18:43.591Z,98262.00
2022-10-11T11:21:21.778Z,98257.80
2022-10-11T11:24:06.745Z,98258.20
2022-10-11T11:27:14.346Z,98257.80
2022-10-11T11:30:08.936Z,98254.20
2022-10-11T11:32:50.731Z,98257.60
2022-10-11T11:35:32.112Z,98258.60
2022-10-11T11:38:14.188Z,98259.80
2022-10-11T11:40:53.003Z,98259.80
2022-10-11T11:43:45.889Z,98254.80
2022-10-11T11:46:20.939Z,98256.20
2022-10-11T11:48:52.250Z,98257.40
2022-10-11T11:51:32.723Z,98260.60
2022-10-11T11:54:26.207Z,98258.60
2022-10-11T11:57:06.351Z,98252.00
2022-10-11T11:59:53.776Z,98254.00
2022-10-11T12:02:47.139Z,98255.40
2022-10-11T12:05:19.746Z,98258.80
2022-10-11T12:08:25.703Z,98251.20
2022-10-11T12:11:02.489Z,98252.80
2022-10-11T12:13:39.720Z,98243.80
2022-10-11T12:16:06.461Z,98246.80
2022-10-11T12:18:46.927Z,98244.80
2022-10-11T12:21:25.352Z,98244.20
2022-10-11T12:24:18.409Z,98240.00
2022-10-11T12:26:50.669Z,98241.20
2022-10-11T12:29:18.325Z,98243.20
2022-10-11T12:31:49.526Z,98235.00
2022-10-11T12:34:35.913Z,98239.40
2022-10-11T12:37:32.116Z,98233.80
2022-10-11T12:40:00.392Z,98241.20
2022-10-11T12:42:29.191Z,98224.00
2022-10-11T12:45:12.119Z,98237.40
2022-10-11T12:48:15.833Z,98237.60
2022-10-11T12:51:43.189Z,98236.60
2022-10-11T12:54:37.597Z,98231.60
2022-10-11T12:57:51.733Z,98232.20
2022-10-11T13:00:31.174Z,98229.40
2022-10-11T13:03:03.695Z,98230.20
2022-10-11T13:05:49.685Z,98227.40
2022-10-11T13:08:45.143Z,98230.20
2022-10-11T13:11:22.444Z,98229.00
2022-10-11T13:14:05.331Z,98225.60
2022-10-11T13:17:05.347Z,98223.20
2022-10-11T13:19:36.142Z,98223.40
2022-10-11T13:22:17.691Z,98219.80
2022-10-11T13:24:45.133Z,98225.00
2022-10-11T13:27:26.072Z,98224.80
2022-10-11T13:30:02.174Z,98222.00
2022-10-11T13:32:32.257Z,98222.00
2022-10-11T13:35:06.276Z,98222.20
2022-10-11T13:37:45.984Z,98222.00
2022-10-11T13:40:19.848Z,98219.20
2022-10-11T13:42:49.341Z,98217.80
2022-10-11T13:45:21.820Z,98218.40
2022-10-11T13:47:51.297Z,98219.20
2022-10-11T13:50:33.576Z,98214.80
2022-10-11T13:53:25.233Z,98215.60
2022-10-11T13:56:04.088Z,98215.00
2022-10-11T13:58:46.253Z,98213.80
2022-10-11T14:01:39.838Z,98216.00
2022-10-11T14:04:12.478Z,98217.20
2022-10-11T14:07:02.657Z,98217.80
2022-10-11T14:09:38.661Z,98215.20
2022-10-11T14:12:32.300Z,98218.20
2022-10-11T14:15:25.706Z,98218.00
2022-10-11T14:17:53.264Z,98219.40
2022-10-11T14:20:20.009Z,98218.00
2022-10-11T14:22:47.226Z,98216.60
2022-10-11T14:25:14.264Z,98215.00
2022-10-11T14:27:42.687Z,98212.40
2022-10-11T14:30:26.994Z,98216.60
2022-10-11T14:32:59.585Z,98214.60
2022-10-11T14:35:34.590Z,98215.20
2022-10-11T14:38:01.587Z,98215.00
2022-10-11T14:40:31.823Z,98212.80
2022-10-11T14:42:58.957Z,98217.40
2022-10-11T14:45:26.317Z,98215.20
2022-10-11T14:47:53.558Z,98217.20
2022-10-11T14:50:39.490Z,98221.40
2022-10-11T14:53:11.735Z,98216.40
2022-10-11T14:55:41.131Z,98215.80
2022-10-11T14:58:11.762Z,98214.00
2022-10-11T15:00:38.649Z,98213.60
2022-10-11T15:03:08.924Z,98218.00
2022-10-11T15:05:38.169Z,98215.20
2022-10-11T15:08:07.334Z,98212.60
2022-10-11T15:10:40.414Z,98213.20
2022-10-11T15:13:08.376Z,98212.40
2022-10-11T15:15:37.024Z,98213.80
2022-10-11T15:18:07.524Z,98209.00
2022-10-11T15:20:43.094Z,98205.60
2022-10-11T15:23:11.307Z,98208.60
2022-10-11T15:25:40.659Z,98208.00
2022-10-11T15:28:10.513Z,98212.80
2022-10-11T15:30:41.402Z,98213.80
2022-10-11T15:33:09.225Z,98210.60
2022-10-11T15:35:36.270Z,98212.60
2022-10-11T15:38:03.442Z,98212.00
2022-10-11T15:40:37.078Z,98205.40
2022-10-11T15:43:04.791Z,98209.20
2022-10-11T15:45:31.941Z,98208.20
2022-10-11T15:48:00.355Z,98209.20
2022-10-11T15:50:37.574Z,98208.80
2022-10-11T15:53:09.905Z,98208.40
2022-10-11T15:55:41.961Z,98212.80
2022-10-11T15:58:21.717Z,98212.00
2022-10-11T16:00:54.155Z,98206.20
2022-10-11T16:03:25.404Z,98216.60
2022-10-11T16:05:55.072Z,98217.00
2022-10-11T16:08:23.928Z,98214.40
2022-10-11T16:10:52.902Z,98213.60
2022-10-11T16:13:20.563Z,98216.40
2022-10-11T16:15:49.133Z,98213.80
2022-10-11T16:18:21.321Z,98216.00
2022-10-11T16:20:52.068Z,98215.00
2022-10-11T16:23:22.071Z,98216.40
2022-10-11T16:26:01.706Z,98218.40
2022-10-11T16:28:30.037Z,98214.00
2022-10-11T16:30:57.852Z,98214.60
2022-10-11T16:33:25.684Z,98214.40
2022-10-11T16:36:14.576Z,98216.60
2022-10-11T16:38:41.698Z,98220.60
2022-10-11T16:41:08.791Z,98224.60
2022-10-11T16:43:36.249Z,98225.40
2022-10-11T16:46:04.684Z,98224.80
2022-10-11T16:48:32.259Z,98228.80
2022-10-11T16:51:07.255Z,98229.20
2022-10-11T16:53:35.732Z,98231.00
2022-10-11T16:56:11.385Z,98235.20
2022-10-11T16:58:38.221Z,98233.40
2022-10-11T17:01:10.999Z,98236.80
2022-10-11T17:03:38.395Z,98239.00
2022-10-11T17:06:07.631Z,98235.20
2022-10-11T17:08:35.561Z,98236.80
2022-10-11T17:11:03.838Z,98236.80
2022-10-11T17:13:30.885Z,98236.20
2022-10-11T17:15:58.648Z,98238.80
2022-10-11T17:18:25.591Z,98237.80
2022-10-11T17:21:11.779Z,98240.20
2022-10-11T17:23:39.117Z,98243.80
2022-10-11T17:26:12.695Z,98241.60
2022-10-11T17:28:39.693Z,98241.60
2022-10-11T17:31:08.157Z,98240.00
2022-10-11T17:33:35.321Z,98243.20
2022-10-11T17:36:12.093Z,98241.00
2022-10-11T17:38:38.880Z,98241.40
2022-10-11T17:41:08.970Z,98243.20
2022-10-11T17:43:36.203Z,98241.40
2022-10-11T17:46:06.252Z,98241.80
2022-10-11T17:48:36.861Z,98242.20
2022-10-11T17:51:15.672Z,98246.60
2022-10-11T17:53:46.660Z,98248.40
2022-10-11T17:56:20.235Z,98245.60
2022-10-11T17:58:49.614Z,98244.40
2022-10-11T18:01:31.398Z,98239.60
2022-10-11T18:04:06.271Z,98239.80
2022-10-11T18:06:39.987Z,98239.60
2022-10-11T18:09:07.302Z,98242.60
2022-10-11T18:11:35.007Z,98238.80
2022-10-11T18:14:02.221Z,98236.80
2022-10-11T18:16:31.700Z,98235.60
2022-10-11T18:18:59.361Z,98239.60
2022-10-11T18:21:33.615Z,98233.20
2022-10-11T18:24:05.826Z,98234.20
2022-10-11T18:26:32.807Z,98237.80
2022-10-11T18:29:00.415Z,98240.80
2022-10-11T18:31:30.606Z,98244.40
2022-10-11T18:33:57.640Z,98242.60
2022-10-11T18:36:28.437Z,98240.60
2022-10-11T18:39:00.351Z,98242.60
2022-10-11T18:41:32.847Z,98245.00
2022-10-11T18:44:10.705Z,98237.00
2022-10-11T18:46:41.897Z,98242.80
2022-10-11T18:49:09.100Z,98238.80
2022-10-11T18:51:42.091Z,98244.40
2022-10-11T18:54:20.262Z,98243.40
2022-10-11T18:56:50.022Z,98248.40
2022-10-11T18:59:21.864Z,98245.20
2022-10-11T19:01:52.627Z,98250.80
2022-10-11T19:04:20.834Z,98248.60
2022-10-11T19:06:49.689Z,98250.60
2022-10-11T19:09:24.360Z,98250.60
2022-10-11T19:11:54.902Z,98248.00
2022-10-11T19:14:26.058Z,98249.80
2022-10-11T19:16:54.496Z,98245.40
2022-10-11T19:19:29.222Z,98244.20
2022-10-11T19:21:56.834Z,98248.40
2022-10-11T19:24:27.970Z,98250.00
2022-10-11T19:27:02.012Z,98252.60
2022-10-11T19:29:30.587Z,98254.00
2022-10-11T19:32:00.964Z,98254.80
2022-10-11T19:34:28.816Z,98254.00
2022-10-11T19:36:56.693Z,98251.40
2022-10-11T19:39:25.644Z,98254.80
2022-10-11T19:41:53.689Z,98259.60
2022-10-11T19:44:21.103Z,98257.80
2022-10-11T19:46:52.468Z,98255.40
2022-10-11T19:49:24.933Z,98258.20
2022-10-11T19:51:55.360Z,98257.00
2022-10-11T19:54:23.049Z,98262.40
2022-10-11T19:56:50.202Z,98260.20
2022-10-11T19:59:17.792Z,98260.00
2022-10-11T20:01:50.975Z,98253.80
2022-10-11T20:04:50.943Z,98257.60
2022-10-11T20:07:07.780Z,98256.20
2022-10-11T20:09:38.841Z,98252.80
2022-10-11T20:12:06.584Z,98254.60
2022-10-11T20:14:33.525Z,98252.00
2022-10-11T20:17:01.966Z,98252.40
2022-10-11T20:19:31.352Z,98254.00
2022-10-11T20:21:59.980Z,98254.80
2022-10-11T20:24:28.986Z,98257.80
2022-10-11T20:26:55.897Z,98255.00
2022-10-11T20:29:25.442Z,98254.60
2022-10-11T20:31:52.479Z,98258.80
2022-10-11T20:34:19.322Z,98258.80
2022-10-11T20:36:49.093Z,98254.00
2022-10-11T20:39:16.891Z,98259.80
2022-10-11T20:41:43.847Z,98261.20
2022-10-11T20:44:13.450Z,98261.60
2022-10-11T20:46:40.394Z,98260.80
2022-10-11T20:49:11.235Z,98258.20
2022-10-11T20:51:41.747Z,98255.00
2022-10-11T20:54:09.950Z,98259.60
2022-10-11T20:56:37.712Z,98256.40
2022-10-11T20:59:06.271Z,98257.60
2022-10-11T21:01:38.398Z,98262.60
2022-10-11T21:04:07.233Z,98263.60
2022-10-11T21:06:34.430Z,98263.20
2022-10-11T21:09:01.663Z,98264.20
2022-10-11T21:11:33.511Z,98261.40
2022-10-11T21:14:06.073Z,98264.60
2022-10-11T21:16:34.531Z,98260.80
2022-10-11T21:19:02.259Z,98259.80
2022-10-11T21:21:29.879Z,98259.60
2022-10-11T21:23:58.744Z,98259.80
2022-10-11T21:26:27.551Z,98260.80
2022-10-11T21:28:54.954Z,98257.40
2022-10-11T21:31:23.575Z,98260.00
2022-10-11T21:33:51.154Z,98259.40
2022-10-11T21:36:23.424Z,98258.60
2022-10-11T21:38:51.915Z,98259.20
2022-10-11T21:41:25.744Z,98258.60
2022-10-11T21:43:53.001Z,98255.80
2022-10-11T21:46:41.588Z,98259.20
2022-10-11T21:49:13.489Z,98257.60
2022-10-11T21:51:40.349Z,98258.20
2022-10-11T21:54:07.465Z,98257.40
2022-10-11T21:56:34.957Z,98252.00
2022-10-11T21:59:01.867Z,98251.60
2022-10-11T22:01:28.907Z,98250.00
2022-10-11T22:03:55.878Z,98248.40
2022-10-11T22:06:22.813Z,98247.00
2022-10-11T22:08:50.100Z,98244.80
2022-10-11T22:11:17.613Z,98240.80
2022-10-11T22:13:45.062Z,98237.40
2022-10-11T22:16:14.141Z,98236.80
2022-10-11T22:18:42.722Z,98233.80
2022-10-11T22:21:17.650Z,98238.40
2022-10-11T22:23:48.434Z,98228.00
2022-10-11T22:26:23.058Z,98227.60
2022-10-11T22:28:50.415Z,98228.40
2022-10-11T22:31:20.417Z,98229.40
2022-10-11T22:33:47.787Z,98229.00
2022-10-11T22:36:19.315Z,98230.60
2022-10-11T22:38:47.714Z,98218.20
2022-10-11T22:41:14.646Z,98223.80
2022-10-11T22:43:41.586Z,98227.40
2022-10-11T22:46:09.075Z,98224.80
2022-10-11T22:48:36.608Z,98220.60
2022-10-11T22:51:04.677Z,98224.60
2022-10-11T22:53:31.943Z,98214.80
2022-10-11T22:55:59.195Z,98217.60
2022-10-11T22:58:26.652Z,98223.20
2022-10-11T23:00:53.476Z,98222.40
2022-10-11T23:03:20.519Z,98220.80
2022-10-11T23:05:58.468Z,98220.80
2022-10-11T23:08:26.069Z,98223.40
2022-10-11T23:10:53.746Z,98219.40
2022-10-11T23:13:21.230Z,98223.80
2022-10-11T23:15:48.249Z,98221.80
2022-10-11T23:18:18.674Z,98224.00
2022-10-11T23:20:45.453Z,98227.40
2022-10-11T23:23:12.425Z,98224.00
2022-10-11T23:25:39.381Z,98222.40
2022-10-11T23:28:06.453Z,98222.00
2022-10-11T23:30:33.506Z,98225.00
2022-10-11T23:33:00.347Z,98222.20
2022-10-11T23:35:27.076Z,98223.40
2022-10-11T23:37:54.955Z,98225.00
2022-10-11T23:40:22.101Z,98222.80
2022-10-11T23:42:49.050Z,98224.60
2022-10-11T23:45:15.987Z,98225.80
2022-10-11T23:47:42.800Z,98222.40
2022-10-11T23:50:09.964Z,98224.40
2022-10-11T23:52:37.050Z,98228.00
2022-10-11T23:55:04.380Z,98230.20
2022-10-11T23:57:31.195Z,98223.80
2022-10-11T23:59:58.032Z,98220.00
